createdAt,value
2017-01-25T00:00:15.985Z,0
2017-01-25T00:01:15.749Z,0
2017-01-25T00:02:16.675Z,0
2017-01-25T00:03:16.031Z,0
2017-01-25T00:04:15.706Z,0
2017-01-25T00:05:15.769Z,0
2017-01-25T00:06:15.845Z,0
2017-01-25T00:07:15.705Z,0
2017-01-25T00:08:15.790Z,0
2017-01-25T00:09:15.701Z,0
2017-01-25T00:10:15.693Z,0
2017-01-25T00:11:15.817Z,0
2017-01-25T00:12:15.788Z,0
2017-01-25T00:13:15.771Z,0
2017-01-25T00:14:15.792Z,0
2017-01-25T00:15:15.659Z,0
2017-01-25T00:16:15.938Z,0
2017-01-25T00:17:15.747Z,0
2017-01-25T00:18:15.631Z,0
2017-01-25T00:19:15.709Z,0
2017-01-25T00:20:15.720Z,0
2017-01-25T00:21:15.677Z,0
2017-01-25T00:22:15.745Z,0
2017-01-25T00:23:15.670Z,0
2017-01-25T00:24:15.697Z,0
2017-01-25T00:25:15.788Z,0
2017-01-25T00:26:15.649Z,0
2017-01-25T00:27:15.807Z,0
2017-01-25T00:28:15.866Z,0
2017-01-25T00:29:15.855Z,0
2017-01-25T00:30:15.669Z,0
2017-01-25T00:31:15.672Z,0
2017-01-25T00:32:15.675Z,0
2017-01-25T00:33:15.719Z,0
2017-01-25T00:34:15.729Z,0
2017-01-25T00:35:15.873Z,0
2017-01-25T00:36:15.704Z,0
2017-01-25T00:37:15.694Z,0
2017-01-25T00:38:15.825Z,0
2017-01-25T00:39:15.700Z,0
2017-01-25T00:40:15.780Z,0
2017-01-25T00:41:15.739Z,0
2017-01-25T00:42:15.797Z,0
2017-01-25T00:43:15.893Z,0
2017-01-25T00:44:15.717Z,0
2017-01-25T00:45:15.701Z,0
2017-01-25T00:46:15.709Z,0
2017-01-25T00:47:15.665Z,0
2017-01-25T00:48:15.712Z,0
2017-01-25T00:49:15.872Z,0
2017-01-25T00:50:15.703Z,0
2017-01-25T00:51:15.813Z,0
2017-01-25T00:52:15.746Z,0
2017-01-25T00:53:15.760Z,0
2017-01-25T00:54:15.798Z,0
2017-01-25T00:55:15.680Z,0
2017-01-25T00:56:15.682Z,0
2017-01-25T00:57:15.819Z,0
2017-01-25T00:58:15.735Z,0
2017-01-25T00:59:15.665Z,0
2017-01-25T01:00:15.968Z,0
2017-01-25T01:01:15.768Z,0
2017-01-25T01:02:15.643Z,0
2017-01-25T01:03:15.730Z,0
2017-01-25T01:04:15.809Z,0
2017-01-25T01:05:15.923Z,0
2017-01-25T01:06:15.733Z,0
2017-01-25T01:07:15.695Z,0
2017-01-25T01:08:15.777Z,0
2017-01-25T01:09:15.667Z,0
2017-01-25T01:10:15.680Z,0
2017-01-25T01:11:15.723Z,0
2017-01-25T01:12:15.949Z,0
2017-01-25T01:13:15.683Z,0
2017-01-25T01:14:15.697Z,0
2017-01-25T01:15:15.795Z,0
2017-01-25T01:16:15.841Z,0
2017-01-25T01:17:15.946Z,0
2017-01-25T01:18:15.742Z,0
2017-01-25T01:19:15.742Z,0
2017-01-25T01:20:15.683Z,0
2017-01-25T01:21:15.857Z,0
2017-01-25T01:22:15.679Z,0
2017-01-25T01:23:15.948Z,0
2017-01-25T01:24:15.728Z,0
2017-01-25T01:25:15.764Z,0
2017-01-25T01:26:15.794Z,0
2017-01-25T01:27:15.717Z,0
2017-01-25T01:28:15.687Z,0
2017-01-25T01:29:15.709Z,0
2017-01-25T01:30:15.697Z,0
2017-01-25T01:31:15.785Z,0
2017-01-25T01:32:15.699Z,0
2017-01-25T01:33:15.800Z,0
2017-01-25T01:34:16.000Z,0
2017-01-25T01:35:15.853Z,0
2017-01-25T01:36:15.983Z,0
2017-01-25T01:37:15.768Z,0
2017-01-25T01:38:15.857Z,0
2017-01-25T01:39:15.699Z,0
2017-01-25T01:40:15.710Z,0
2017-01-25T01:41:15.823Z,0
2017-01-25T01:42:15.861Z,0
2017-01-25T01:43:15.699Z,0
2017-01-25T01:44:15.731Z,0
2017-01-25T01:45:15.783Z,0
2017-01-25T01:46:15.784Z,0
2017-01-25T01:47:15.748Z,0
2017-01-25T01:48:15.723Z,0
2017-01-25T01:49:15.817Z,0
2017-01-25T01:50:15.720Z,0
2017-01-25T01:51:15.739Z,0
2017-01-25T01:52:15.707Z,0
2017-01-25T01:53:15.735Z,0
2017-01-25T01:54:15.709Z,0
2017-01-25T01:55:15.685Z,0
2017-01-25T01:56:15.822Z,0
2017-01-25T01:57:15.739Z,0
2017-01-25T01:58:15.841Z,0
2017-01-25T01:59:15.713Z,0
2017-01-25T02:00:15.864Z,0
2017-01-25T02:01:15.738Z,0
2017-01-25T02:02:15.709Z,0
2017-01-25T02:03:15.692Z,0
2017-01-25T02:04:15.839Z,0
2017-01-25T02:05:15.700Z,0
2017-01-25T02:06:15.842Z,0
2017-01-25T02:07:15.715Z,0
2017-01-25T02:08:15.722Z,0
2017-01-25T02:09:15.768Z,0
2017-01-25T02:10:15.845Z,0
2017-01-25T02:11:15.862Z,0
2017-01-25T02:12:15.715Z,0
2017-01-25T02:13:15.870Z,0
2017-01-25T02:14:15.788Z,0
2017-01-25T02:15:15.743Z,0
2017-01-25T02:16:15.925Z,0
2017-01-25T02:17:15.928Z,0
2017-01-25T02:18:15.823Z,0
2017-01-25T02:19:15.928Z,0
2017-01-25T02:20:15.745Z,0
2017-01-25T02:21:15.724Z,0
2017-01-25T02:22:15.728Z,0
2017-01-25T02:23:15.907Z,0
2017-01-25T02:24:16.045Z,0
2017-01-25T02:25:15.712Z,0
2017-01-25T02:26:15.730Z,0
2017-01-25T02:27:15.850Z,0
2017-01-25T02:28:15.721Z,0
2017-01-25T02:29:15.778Z,0
2017-01-25T02:30:15.729Z,0
2017-01-25T02:31:15.723Z,0
2017-01-25T02:32:15.713Z,0
2017-01-25T02:33:15.734Z,0
2017-01-25T02:34:15.718Z,0
2017-01-25T02:35:15.734Z,0
2017-01-25T02:36:15.709Z,0
2017-01-25T02:37:15.830Z,0
2017-01-25T02:38:16.191Z,0
2017-01-25T02:39:16.004Z,0
2017-01-25T02:40:15.997Z,0
2017-01-25T02:41:15.856Z,0
2017-01-25T02:42:15.817Z,0
2017-01-25T02:43:15.716Z,0
2017-01-25T02:44:15.985Z,0
2017-01-25T02:45:15.801Z,0
2017-01-25T02:46:15.845Z,0
2017-01-25T02:47:15.771Z,0
2017-01-25T02:48:15.845Z,0
2017-01-25T02:49:15.775Z,0
2017-01-25T02:50:15.813Z,0
2017-01-25T02:51:15.897Z,0
2017-01-25T02:52:15.774Z,0
2017-01-25T02:53:15.807Z,0
2017-01-25T02:54:15.749Z,0
2017-01-25T02:55:16.000Z,0
2017-01-25T02:56:15.905Z,0
2017-01-25T02:57:15.736Z,0
2017-01-25T02:58:16.071Z,0
2017-01-25T02:59:15.857Z,0
2017-01-25T03:00:15.928Z,0
2017-01-25T03:01:15.876Z,0
2017-01-25T03:02:15.747Z,0
2017-01-25T03:03:15.870Z,0
2017-01-25T03:04:15.904Z,0
2017-01-25T03:05:15.799Z,0
2017-01-25T03:06:15.755Z,0
2017-01-25T03:07:15.939Z,0
2017-01-25T03:08:15.790Z,0
2017-01-25T03:09:15.982Z,0
2017-01-25T03:10:15.773Z,0
2017-01-25T03:11:15.809Z,0
2017-01-25T03:12:15.826Z,0
2017-01-25T03:13:15.905Z,0
2017-01-25T03:14:16.020Z,0
2017-01-25T03:15:15.773Z,0
2017-01-25T03:16:15.734Z,0
2017-01-25T03:17:15.747Z,0
2017-01-25T03:18:15.743Z,0
2017-01-25T03:19:15.752Z,0
2017-01-25T03:20:15.739Z,0
2017-01-25T03:21:15.742Z,0
2017-01-25T03:22:15.767Z,0
2017-01-25T03:23:15.736Z,0
2017-01-25T03:24:15.749Z,0
2017-01-25T03:25:15.746Z,0
2017-01-25T03:26:15.760Z,0
2017-01-25T03:27:15.766Z,0
2017-01-25T03:28:15.762Z,0
2017-01-25T03:29:15.742Z,0
2017-01-25T03:30:15.752Z,0
2017-01-25T03:31:15.745Z,0
2017-01-25T03:32:15.765Z,0
2017-01-25T03:33:15.769Z,0
2017-01-25T03:34:15.771Z,0
2017-01-25T03:35:15.812Z,0
2017-01-25T03:36:15.772Z,0
2017-01-25T03:37:15.757Z,0
2017-01-25T03:38:15.763Z,0
2017-01-25T03:39:15.811Z,0
2017-01-25T03:40:15.775Z,0
2017-01-25T03:41:15.791Z,0
2017-01-25T03:42:15.747Z,0
2017-01-25T03:43:15.774Z,0
2017-01-25T03:44:15.789Z,0
2017-01-25T03:45:15.762Z,0
2017-01-25T03:46:15.776Z,0
2017-01-25T03:47:15.771Z,0
2017-01-25T03:48:15.764Z,0
2017-01-25T03:49:15.750Z,0
2017-01-25T03:50:15.801Z,0
2017-01-25T03:51:15.785Z,0
2017-01-25T03:52:15.761Z,0
2017-01-25T03:53:15.777Z,0
2017-01-25T03:54:15.777Z,0
2017-01-25T03:55:15.781Z,0
2017-01-25T03:56:15.822Z,0
2017-01-25T03:57:15.779Z,0
2017-01-25T03:58:15.769Z,0
2017-01-25T03:59:15.791Z,0
2017-01-25T04:00:15.769Z,0
2017-01-25T04:01:15.817Z,0
2017-01-25T04:02:15.780Z,0
2017-01-25T04:03:15.764Z,0
2017-01-25T04:04:15.780Z,0
2017-01-25T04:05:15.756Z,0
2017-01-25T04:06:15.766Z,0
2017-01-25T04:07:15.756Z,0
2017-01-25T04:08:15.782Z,0
2017-01-25T04:09:15.754Z,0
2017-01-25T04:10:15.763Z,0
2017-01-25T04:11:15.778Z,0
2017-01-25T04:12:15.777Z,0
2017-01-25T04:13:15.784Z,0
2017-01-25T04:14:15.789Z,0
2017-01-25T04:15:15.768Z,0
2017-01-25T04:16:15.760Z,0
2017-01-25T04:17:15.794Z,0
2017-01-25T04:18:15.774Z,0
2017-01-25T04:19:15.769Z,0
2017-01-25T04:20:15.774Z,0
2017-01-25T04:21:15.782Z,0
2017-01-25T04:22:15.771Z,0
2017-01-25T04:23:15.774Z,0
2017-01-25T04:24:15.786Z,0
2017-01-25T04:25:15.822Z,0
2017-01-25T04:26:15.797Z,0
2017-01-25T04:27:15.788Z,0
2017-01-25T04:28:15.832Z,0
2017-01-25T04:29:15.794Z,0
2017-01-25T04:30:15.832Z,0
2017-01-25T04:31:15.827Z,0
2017-01-25T04:32:15.804Z,0
2017-01-25T04:33:15.774Z,0
2017-01-25T04:34:15.832Z,0
2017-01-25T04:35:15.797Z,0
2017-01-25T04:36:15.817Z,0
2017-01-25T04:37:15.785Z,0
2017-01-25T04:38:15.805Z,0
2017-01-25T04:39:15.799Z,0
2017-01-25T04:40:15.793Z,0
2017-01-25T04:41:15.814Z,0
2017-01-25T04:42:15.819Z,0
2017-01-25T04:43:15.812Z,0
2017-01-25T04:44:15.818Z,0
2017-01-25T04:45:15.809Z,0
2017-01-25T04:46:15.817Z,0
2017-01-25T04:47:15.800Z,0
2017-01-25T04:48:15.813Z,0
2017-01-25T04:49:15.817Z,0
2017-01-25T04:50:15.815Z,0
2017-01-25T04:51:15.845Z,0
2017-01-25T04:52:15.827Z,0
2017-01-25T04:53:15.818Z,0
2017-01-25T04:54:15.798Z,0
2017-01-25T04:55:15.804Z,0
2017-01-25T04:56:15.838Z,0
2017-01-25T04:57:15.811Z,0
2017-01-25T04:58:15.853Z,0
2017-01-25T04:59:15.834Z,0
2017-01-25T05:00:15.801Z,0
2017-01-25T05:01:16.447Z,0
2017-01-25T05:02:15.806Z,0
2017-01-25T05:03:15.811Z,0
2017-01-25T05:04:15.815Z,0
2017-01-25T05:05:15.790Z,0
2017-01-25T05:06:15.795Z,0
2017-01-25T05:07:15.812Z,0
2017-01-25T05:08:15.809Z,0
2017-01-25T05:09:15.827Z,0
2017-01-25T05:10:15.816Z,0
2017-01-25T05:11:15.837Z,0
2017-01-25T05:12:15.807Z,0
2017-01-25T05:13:15.809Z,0
2017-01-25T05:14:15.828Z,0
2017-01-25T05:15:15.808Z,0
2017-01-25T05:16:15.833Z,0
2017-01-25T05:17:15.836Z,0
2017-01-25T05:18:15.810Z,0
2017-01-25T05:19:15.827Z,0
2017-01-25T05:20:15.826Z,0
2017-01-25T05:21:15.842Z,0
2017-01-25T05:22:15.823Z,0
2017-01-25T05:23:15.956Z,0
2017-01-25T05:24:15.837Z,0
2017-01-25T05:25:15.839Z,0
2017-01-25T05:26:15.856Z,0
2017-01-25T05:27:15.845Z,0
2017-01-25T05:28:15.851Z,0
2017-01-25T05:29:15.807Z,0
2017-01-25T05:30:15.815Z,0
2017-01-25T05:31:15.859Z,0
2017-01-25T05:32:15.834Z,0
2017-01-25T05:33:15.813Z,0
2017-01-25T05:34:15.819Z,0
2017-01-25T05:35:15.797Z,0
2017-01-25T05:36:15.829Z,0
2017-01-25T05:37:15.855Z,0
2017-01-25T05:38:15.842Z,0
2017-01-25T05:39:15.807Z,0
2017-01-25T05:40:15.831Z,0
2017-01-25T05:41:15.822Z,0
2017-01-25T05:42:15.850Z,0
2017-01-25T05:43:15.853Z,0
2017-01-25T05:44:15.813Z,0
2017-01-25T05:45:15.847Z,0
2017-01-25T05:46:15.841Z,0
2017-01-25T05:47:15.875Z,0
2017-01-25T05:48:15.850Z,0
2017-01-25T05:49:15.813Z,0
2017-01-25T05:50:15.826Z,0
2017-01-25T05:51:15.842Z,0
2017-01-25T05:52:15.807Z,0
2017-01-25T05:53:15.814Z,0
2017-01-25T05:54:15.936Z,0
2017-01-25T05:55:15.811Z,0
2017-01-25T05:56:15.816Z,0
2017-01-25T05:57:15.832Z,0
2017-01-25T05:58:15.848Z,0
2017-01-25T05:59:15.876Z,0
2017-01-25T06:00:15.828Z,0
2017-01-25T06:01:15.835Z,0
2017-01-25T06:02:15.857Z,0
2017-01-25T06:03:15.851Z,0
2017-01-25T06:04:15.872Z,0
2017-01-25T06:05:15.819Z,0
2017-01-25T06:06:15.824Z,0
2017-01-25T06:07:15.849Z,0
2017-01-25T06:08:15.889Z,0
2017-01-25T06:09:15.865Z,0
2017-01-25T06:10:15.838Z,0
2017-01-25T06:11:15.849Z,0
2017-01-25T06:12:15.946Z,0
2017-01-25T06:13:15.862Z,0
2017-01-25T06:14:15.862Z,0
2017-01-25T06:15:15.859Z,0
2017-01-25T06:16:15.884Z,0
2017-01-25T06:17:15.875Z,0
2017-01-25T06:18:15.887Z,0
2017-01-25T06:19:15.843Z,0
2017-01-25T06:20:15.891Z,0
2017-01-25T06:21:15.886Z,0
2017-01-25T06:22:15.901Z,0
2017-01-25T06:23:15.987Z,0
2017-01-25T06:24:16.014Z,0
2017-01-25T06:25:16.224Z,0
2017-01-25T06:26:15.879Z,0
2017-01-25T06:27:15.879Z,0
2017-01-25T06:28:15.859Z,0
2017-01-25T06:29:15.909Z,0
2017-01-25T06:30:16.077Z,0
2017-01-25T06:31:15.907Z,0
2017-01-25T06:32:15.973Z,0
2017-01-25T06:33:16.034Z,0
2017-01-25T06:34:15.915Z,0
2017-01-25T06:35:16.015Z,0
2017-01-25T06:36:15.948Z,0
2017-01-25T06:37:15.853Z,0
2017-01-25T06:38:15.842Z,0
2017-01-25T06:39:15.856Z,0
2017-01-25T06:40:15.853Z,4
2017-01-25T06:41:15.891Z,4
2017-01-25T06:42:15.867Z,4
2017-01-25T06:43:15.855Z,0
2017-01-25T06:44:15.847Z,0
2017-01-25T06:45:15.853Z,4
2017-01-25T06:46:15.864Z,4
2017-01-25T06:47:15.854Z,0
2017-01-25T06:48:15.899Z,4
2017-01-25T06:49:15.846Z,8
2017-01-25T06:50:15.848Z,4
2017-01-25T06:51:15.865Z,4
2017-01-25T06:52:15.914Z,8
2017-01-25T06:53:15.955Z,12
2017-01-25T06:54:15.853Z,8
2017-01-25T06:55:15.852Z,12
2017-01-25T06:56:15.856Z,16
2017-01-25T06:57:15.862Z,16
2017-01-25T06:58:15.901Z,20
2017-01-25T06:59:15.862Z,24
2017-01-25T07:00:15.995Z,28
2017-01-25T07:01:15.863Z,32
2017-01-25T07:02:15.868Z,36
2017-01-25T07:03:15.871Z,44
2017-01-25T07:04:15.854Z,48
2017-01-25T07:05:15.880Z,56
2017-01-25T07:06:15.850Z,64
2017-01-25T07:07:15.862Z,76
2017-01-25T07:08:15.848Z,84
2017-01-25T07:09:16.022Z,92
2017-01-25T07:10:15.868Z,104
2017-01-25T07:11:15.888Z,116
2017-01-25T07:12:15.846Z,128
2017-01-25T07:13:15.856Z,140
2017-01-25T07:14:15.902Z,156
2017-01-25T07:15:15.893Z,172
2017-01-25T07:16:15.904Z,188
2017-01-25T07:17:15.980Z,208
2017-01-25T07:18:15.858Z,228
2017-01-25T07:19:15.951Z,248
2017-01-25T07:20:15.865Z,264
2017-01-25T07:21:16.219Z,288
2017-01-25T07:22:15.971Z,312
2017-01-25T07:23:16.082Z,336
2017-01-25T07:24:16.130Z,356
2017-01-25T07:25:16.787Z,384
2017-01-25T07:26:16.471Z,408
2017-01-25T07:27:15.881Z,436
2017-01-25T07:28:15.894Z,464
2017-01-25T07:29:16.012Z,488
2017-01-25T07:30:15.864Z,520
2017-01-25T07:31:15.913Z,548
2017-01-25T07:32:15.920Z,576
2017-01-25T07:33:16.078Z,612
2017-01-25T07:34:15.940Z,644
2017-01-25T07:35:16.299Z,676
2017-01-25T07:36:15.892Z,708
2017-01-25T07:37:15.911Z,740
2017-01-25T07:38:15.938Z,776
2017-01-25T07:39:15.956Z,808
2017-01-25T07:40:15.906Z,840
2017-01-25T07:41:15.902Z,876
2017-01-25T07:42:15.906Z,912
2017-01-25T07:43:15.969Z,948
2017-01-25T07:44:16.071Z,984
2017-01-25T07:45:15.943Z,1024
2017-01-25T07:46:15.887Z,1060
2017-01-25T07:47:15.972Z,1096
2017-01-25T07:48:16.100Z,1132
2017-01-25T07:49:15.949Z,1168
2017-01-25T07:50:15.876Z,1200
2017-01-25T07:51:15.976Z,1228
2017-01-25T07:52:15.898Z,1264
2017-01-25T07:53:15.920Z,1296
2017-01-25T07:54:15.900Z,1328
2017-01-25T07:55:15.913Z,1364
2017-01-25T07:56:15.898Z,1404
2017-01-25T07:57:15.877Z,1440
2017-01-25T07:58:15.894Z,1468
2017-01-25T07:59:15.972Z,1504
2017-01-25T08:00:15.947Z,1540
2017-01-25T08:01:15.966Z,1568
2017-01-25T08:02:16.038Z,1604
2017-01-25T08:03:16.042Z,1636
2017-01-25T08:04:16.027Z,1676
2017-01-25T08:05:16.076Z,1712
2017-01-25T08:06:15.932Z,1740
2017-01-25T08:07:15.931Z,1760
2017-01-25T08:08:15.928Z,1792
2017-01-25T08:09:16.171Z,1820
2017-01-25T08:10:15.973Z,1844
2017-01-25T08:11:15.928Z,1876
2017-01-25T08:12:17.517Z,1908
2017-01-25T08:13:15.904Z,1944
2017-01-25T08:14:16.007Z,1972
2017-01-25T08:15:15.949Z,2008
2017-01-25T08:16:16.318Z,2048
2017-01-25T08:17:16.108Z,2088
2017-01-25T08:18:16.000Z,2128
2017-01-25T08:19:16.097Z,2156
2017-01-25T08:20:16.433Z,2192
2017-01-25T08:21:15.966Z,2228
2017-01-25T08:22:15.936Z,2248
2017-01-25T08:23:15.934Z,2272
2017-01-25T08:24:15.965Z,2292
2017-01-25T08:25:15.920Z,2320
2017-01-25T08:26:15.920Z,2360
2017-01-25T08:27:15.976Z,2388
2017-01-25T08:28:15.904Z,2412
2017-01-25T08:29:15.931Z,2448
2017-01-25T08:30:15.919Z,2480
2017-01-25T08:31:15.900Z,2504
2017-01-25T08:32:15.906Z,2512
2017-01-25T08:33:15.908Z,2512
2017-01-25T08:34:15.921Z,2532
2017-01-25T08:35:15.930Z,2568
2017-01-25T08:36:16.007Z,2588
2017-01-25T08:37:15.968Z,2608
2017-01-25T08:38:15.947Z,2624
2017-01-25T08:39:15.953Z,2648
2017-01-25T08:40:15.928Z,2656
2017-01-25T08:41:15.933Z,2676
2017-01-25T08:42:15.943Z,2696
2017-01-25T08:43:15.936Z,2716
2017-01-25T08:44:15.967Z,2736
2017-01-25T08:45:16.065Z,2740
2017-01-25T08:46:15.991Z,2756
2017-01-25T08:47:15.920Z,2792
2017-01-25T08:48:16.221Z,2828
2017-01-25T08:49:16.025Z,2860
2017-01-25T08:50:15.939Z,2880
2017-01-25T08:51:15.987Z,2900
2017-01-25T08:52:15.926Z,2936
2017-01-25T08:53:15.935Z,2920
2017-01-25T08:54:15.951Z,2924
2017-01-25T08:55:15.910Z,2912
2017-01-25T08:56:15.946Z,2936
2017-01-25T08:57:15.939Z,2948
2017-01-25T08:58:15.931Z,2968
2017-01-25T08:59:15.916Z,2988
2017-01-25T09:00:15.916Z,2996
2017-01-25T09:01:15.938Z,3004
2017-01-25T09:02:16.004Z,3020
2017-01-25T09:03:15.940Z,3048
2017-01-25T09:04:15.965Z,3064
2017-01-25T09:05:15.962Z,3076
2017-01-25T09:06:15.938Z,3100
2017-01-25T09:07:15.952Z,3116
2017-01-25T09:08:15.924Z,3116
2017-01-25T09:09:15.951Z,3120
2017-01-25T09:10:15.943Z,3128
2017-01-25T09:11:15.932Z,3136
2017-01-25T09:12:15.930Z,3144
2017-01-25T09:13:15.960Z,3156
2017-01-25T09:14:15.942Z,3160
2017-01-25T09:15:19.491Z,3168
2017-01-25T09:16:18.588Z,3192
2017-01-25T09:17:15.950Z,3192
2017-01-25T09:18:15.971Z,3204
2017-01-25T09:19:15.942Z,3224
2017-01-25T09:20:15.942Z,3228
2017-01-25T09:21:15.946Z,3240
2017-01-25T09:22:15.961Z,3248
2017-01-25T09:23:15.944Z,3248
2017-01-25T09:24:15.963Z,3240
2017-01-25T09:25:15.941Z,3264
2017-01-25T09:26:15.949Z,3284
2017-01-25T09:27:16.423Z,3288
2017-01-25T09:28:15.938Z,3300
2017-01-25T09:29:15.929Z,3320
2017-01-25T09:30:15.973Z,3332
2017-01-25T09:31:15.972Z,3328
2017-01-25T09:32:15.956Z,3328
2017-01-25T09:33:15.976Z,3348
2017-01-25T09:34:15.939Z,3364
2017-01-25T09:35:15.946Z,3380
2017-01-25T09:36:15.952Z,3388
2017-01-25T09:37:15.952Z,3388
2017-01-25T09:38:15.943Z,3376
2017-01-25T09:39:15.962Z,3316
2017-01-25T09:40:15.961Z,3260
2017-01-25T09:41:15.965Z,3284
2017-01-25T09:42:15.987Z,3284
2017-01-25T09:43:15.941Z,3228
2017-01-25T09:44:15.976Z,3168
2017-01-25T09:45:15.991Z,3140
2017-01-25T09:46:15.981Z,3204
2017-01-25T09:47:15.985Z,3428
2017-01-25T09:48:15.962Z,3876
2017-01-25T09:49:15.961Z,3912
2017-01-25T09:50:15.961Z,4108
2017-01-25T09:51:15.997Z,4720
2017-01-25T09:52:15.994Z,5404
2017-01-25T09:53:15.968Z,5408
2017-01-25T09:54:16.016Z,4952
2017-01-25T09:55:15.961Z,4500
2017-01-25T09:56:15.959Z,4684
2017-01-25T09:57:15.992Z,5160
2017-01-25T09:58:15.981Z,5044
2017-01-25T09:59:15.950Z,4656
2017-01-25T10:00:15.949Z,4448
2017-01-25T10:01:15.981Z,5048
2017-01-25T10:02:15.997Z,5668
2017-01-25T10:03:15.986Z,5740
2017-01-25T10:04:15.998Z,5396
2017-01-25T10:05:15.953Z,5308
2017-01-25T10:06:15.973Z,5436
2017-01-25T10:07:15.980Z,5664
2017-01-25T10:08:15.966Z,5768
2017-01-25T10:09:15.969Z,5760
2017-01-25T10:10:16.015Z,5572
2017-01-25T10:11:16.205Z,5484
2017-01-25T10:12:16.000Z,5524
2017-01-25T10:13:15.957Z,5500
2017-01-25T10:14:15.962Z,5544
2017-01-25T10:15:16.065Z,5532
2017-01-25T10:16:16.160Z,5760
2017-01-25T10:17:16.066Z,5976
2017-01-25T10:18:15.960Z,5732
2017-01-25T10:19:16.057Z,5516
2017-01-25T10:20:15.974Z,5768
2017-01-25T10:21:16.032Z,5852
2017-01-25T10:22:16.004Z,5948
2017-01-25T10:23:16.013Z,5972
2017-01-25T10:24:15.992Z,5956
2017-01-25T10:25:15.996Z,5916
2017-01-25T10:26:16.024Z,6088
2017-01-25T10:27:15.996Z,6160
2017-01-25T10:28:15.996Z,6288
2017-01-25T10:29:16.043Z,6352
2017-01-25T10:30:15.984Z,6452
2017-01-25T10:31:16.006Z,6372
2017-01-25T10:32:15.995Z,6172
2017-01-25T10:33:16.269Z,6228
2017-01-25T10:34:15.983Z,6460
2017-01-25T10:35:16.005Z,6600
2017-01-25T10:36:16.052Z,6600
2017-01-25T10:37:16.000Z,6612
2017-01-25T10:38:16.031Z,6580
2017-01-25T10:39:15.975Z,6404
2017-01-25T10:40:16.071Z,6524
2017-01-25T10:41:16.023Z,6628
2017-01-25T10:42:15.993Z,6504
2017-01-25T10:43:15.999Z,6108
2017-01-25T10:44:15.978Z,6164
2017-01-25T10:45:15.966Z,6604
2017-01-25T10:46:15.988Z,6888
2017-01-25T10:47:15.998Z,6636
2017-01-25T10:48:16.004Z,6292
2017-01-25T10:49:15.994Z,6320
2017-01-25T10:50:15.994Z,6440
2017-01-25T10:51:16.147Z,6096
2017-01-25T10:52:16.151Z,5816
2017-01-25T10:53:15.998Z,5820
2017-01-25T10:54:15.982Z,5900
2017-01-25T10:55:15.990Z,6016
2017-01-25T10:56:16.082Z,6200
2017-01-25T10:57:16.002Z,6296
2017-01-25T10:58:15.997Z,6224
2017-01-25T10:59:16.015Z,6372
2017-01-25T11:00:15.996Z,6552
2017-01-25T11:01:15.997Z,6532
2017-01-25T11:02:16.142Z,6572
2017-01-25T11:03:15.987Z,6592
2017-01-25T11:04:16.026Z,6612
2017-01-25T11:05:16.188Z,6596
2017-01-25T11:06:16.002Z,6500
2017-01-25T11:07:15.998Z,6608
2017-01-25T11:08:16.072Z,6848
2017-01-25T11:09:16.008Z,6736
2017-01-25T11:10:16.032Z,6376
2017-01-25T11:11:16.021Z,6292
2017-01-25T11:12:16.011Z,6648
2017-01-25T11:13:16.077Z,6996
2017-01-25T11:14:16.021Z,6920
2017-01-25T11:15:16.000Z,6972
2017-01-25T11:16:16.031Z,7140
2017-01-25T11:17:16.036Z,7076
2017-01-25T11:18:16.004Z,7076
2017-01-25T11:19:16.017Z,7140
2017-01-25T11:20:16.010Z,7108
2017-01-25T11:21:16.017Z,6988
2017-01-25T11:22:16.010Z,6848
2017-01-25T11:23:16.026Z,7036
2017-01-25T11:24:16.017Z,6988
2017-01-25T11:25:16.055Z,6636
2017-01-25T11:26:16.011Z,6548
2017-01-25T11:27:16.037Z,6560
2017-01-25T11:28:16.026Z,6556
2017-01-25T11:29:16.029Z,6836
2017-01-25T11:30:16.025Z,6868
2017-01-25T11:31:16.001Z,6776
2017-01-25T11:32:16.053Z,6832
2017-01-25T11:33:16.041Z,6848
2017-01-25T11:34:16.025Z,6752
2017-01-25T11:35:16.012Z,6920
2017-01-25T11:36:16.012Z,7152
2017-01-25T11:37:16.273Z,7116
2017-01-25T11:38:16.715Z,6844
2017-01-25T11:39:16.041Z,6680
2017-01-25T11:40:16.070Z,6972
2017-01-25T11:41:16.198Z,7172
2017-01-25T11:42:16.071Z,6912
2017-01-25T11:43:16.075Z,6504
2017-01-25T11:44:16.147Z,6536
2017-01-25T11:45:16.093Z,6752
2017-01-25T11:46:16.140Z,6748
2017-01-25T11:47:16.137Z,6684
2017-01-25T11:48:16.037Z,6780
2017-01-25T11:49:16.062Z,6884
2017-01-25T11:50:16.120Z,7024
2017-01-25T11:51:16.094Z,6880
2017-01-25T11:52:16.039Z,6568
2017-01-25T11:53:16.172Z,6444
2017-01-25T11:54:16.149Z,6776
2017-01-25T11:55:16.039Z,6908
2017-01-25T11:56:16.148Z,6844
2017-01-25T11:57:16.134Z,6872
2017-01-25T11:58:16.132Z,7028
2017-01-25T11:59:16.050Z,7124
2017-01-25T12:00:16.075Z,6792
2017-01-25T12:01:16.039Z,6416
2017-01-25T12:02:16.192Z,6408
2017-01-25T12:03:16.209Z,6364
2017-01-25T12:04:16.130Z,6068
2017-01-25T12:05:16.047Z,6048
2017-01-25T12:06:16.191Z,5992
2017-01-25T12:07:16.055Z,5692
2017-01-25T12:08:16.097Z,5676
2017-01-25T12:09:16.059Z,5956
2017-01-25T12:10:16.115Z,6024
2017-01-25T12:11:16.155Z,5828
2017-01-25T12:12:16.045Z,5548
2017-01-25T12:13:16.149Z,5532
2017-01-25T12:14:16.074Z,5784
2017-01-25T12:15:16.121Z,6012
2017-01-25T12:16:16.099Z,6032
2017-01-25T12:17:16.118Z,6160
2017-01-25T12:18:16.081Z,6172
2017-01-25T12:19:16.105Z,5728
2017-01-25T12:20:16.210Z,5464
2017-01-25T12:21:16.059Z,5320
2017-01-25T12:22:16.194Z,5180
2017-01-25T12:23:16.156Z,5348
2017-01-25T12:24:16.086Z,5544
2017-01-25T12:25:16.042Z,5496
2017-01-25T12:26:16.312Z,5244
2017-01-25T12:27:16.334Z,5456
2017-01-25T12:28:16.257Z,5712
2017-01-25T12:29:16.084Z,5720
2017-01-25T12:30:16.298Z,5792
2017-01-25T12:31:16.111Z,6056
2017-01-25T12:32:16.055Z,5996
2017-01-25T12:33:16.049Z,5832
2017-01-25T12:34:16.166Z,5772
2017-01-25T12:35:17.244Z,5872
2017-01-25T12:36:16.224Z,6032
2017-01-25T12:37:16.588Z,5848
2017-01-25T12:38:16.067Z,5800
2017-01-25T12:39:16.083Z,5776
2017-01-25T12:40:16.150Z,5940
2017-01-25T12:41:16.091Z,6472
2017-01-25T12:42:16.156Z,6584
2017-01-25T12:43:16.516Z,6648
2017-01-25T12:44:16.066Z,6532
2017-01-25T12:45:16.080Z,6084
2017-01-25T12:46:16.146Z,6216
2017-01-25T12:47:16.141Z,5712
2017-01-25T12:48:16.094Z,5408
2017-01-25T12:49:16.078Z,5460
2017-01-25T12:50:16.123Z,5544
2017-01-25T12:51:16.420Z,5564
2017-01-25T12:52:16.127Z,5316
2017-01-25T12:53:16.149Z,5204
2017-01-25T12:54:16.127Z,5016
2017-01-25T12:55:16.141Z,4836
2017-01-25T12:56:16.715Z,4792
2017-01-25T12:57:16.067Z,4720
2017-01-25T12:58:16.083Z,4584
2017-01-25T12:59:16.107Z,4756
2017-01-25T13:00:16.129Z,5164
2017-01-25T13:01:16.109Z,5076
2017-01-25T13:02:16.179Z,5020
2017-01-25T13:03:16.327Z,4908
2017-01-25T13:04:16.384Z,4832
2017-01-25T13:05:16.217Z,4868
2017-01-25T13:06:17.085Z,4700
2017-01-25T13:07:16.093Z,4660
2017-01-25T13:08:17.040Z,4580
2017-01-25T13:09:16.687Z,4796
2017-01-25T13:10:16.551Z,5020
2017-01-25T13:11:16.385Z,5112
2017-01-25T13:12:16.147Z,5140
2017-01-25T13:13:16.207Z,5212
2017-01-25T13:14:16.158Z,5400
2017-01-25T13:15:16.108Z,5864
2017-01-25T13:16:16.231Z,5776
2017-01-25T13:17:16.267Z,5556
2017-01-25T13:18:16.168Z,5632
2017-01-25T13:19:16.156Z,5508
2017-01-25T13:20:16.114Z,5516
2017-01-25T13:21:16.124Z,5568
2017-01-25T13:22:16.280Z,5728
2017-01-25T13:23:16.104Z,5900
2017-01-25T13:24:16.125Z,5676
2017-01-25T13:25:16.197Z,5668
2017-01-25T13:26:16.347Z,5772
2017-01-25T13:27:16.101Z,6012
2017-01-25T13:28:16.212Z,5824
2017-01-25T13:29:16.091Z,5676
2017-01-25T13:30:21.611Z,5788
2017-01-25T13:31:19.140Z,5580
2017-01-25T13:32:16.193Z,5332
2017-01-25T13:33:16.176Z,5168
2017-01-25T13:34:16.127Z,5160
2017-01-25T13:35:19.523Z,5176
2017-01-25T13:36:19.498Z,5188
2017-01-25T13:37:18.517Z,5016
2017-01-25T13:38:18.334Z,4992
2017-01-25T13:39:19.188Z,4932
2017-01-25T13:40:19.642Z,4804
2017-01-25T13:41:19.071Z,4632
2017-01-25T13:42:18.700Z,4472
2017-01-25T13:43:19.356Z,4444
2017-01-25T13:44:18.909Z,4588
2017-01-25T13:45:19.004Z,4704
2017-01-25T13:46:18.545Z,4640
2017-01-25T13:47:18.469Z,4372
2017-01-25T13:48:19.264Z,4100
2017-01-25T13:49:19.152Z,3960
2017-01-25T13:50:18.659Z,4132
2017-01-25T13:51:18.994Z,4236
2017-01-25T13:52:17.033Z,4192
2017-01-25T13:53:16.150Z,4128
2017-01-25T13:54:16.137Z,4220
2017-01-25T13:55:16.125Z,4384
2017-01-25T13:56:16.137Z,4128
2017-01-25T13:57:16.176Z,3892
2017-01-25T13:58:16.183Z,3824
2017-01-25T13:59:16.144Z,3964
2017-01-25T14:00:16.113Z,4040
2017-01-25T14:01:16.126Z,3916
2017-01-25T14:02:16.121Z,3588